sensor_id;sensor_type;location;lat;lon;timestamp;temperature;humidity
67364;HTU21D;54250;45.572;38.086;2023-02-28T00:00:32;9.11;71.68
67364;HTU21D;54250;45.572;38.086;2023-02-28T00:02:58;9.05;71.75
67364;HTU21D;54250;45.572;38.086;2023-02-28T00:05:26;9.02;71.80
67364;HTU21D;54250;45.572;38.086;2023-02-28T00:07:52;8.94;71.82
67364;HTU21D;54250;45.572;38.086;2023-02-28T00:10:21;8.89;71.96
67364;HTU21D;54250;45.572;38.086;2023-02-28T00:12:49;8.85;72.12
67364;HTU21D;54250;45.572;38.086;2023-02-28T00:15:16;8.79;72.09
67364;HTU21D;54250;45.572;38.086;2023-02-28T00:17:42;8.80;71.99
67364;HTU21D;54250;45.572;38.086;2023-02-28T00:20:10;8.85;71.76
67364;HTU21D;54250;45.572;38.086;2023-02-28T00:22:45;8.87;71.64
67364;HTU21D;54250;45.572;38.086;2023-02-28T00:25:13;8.88;71.64
67364;HTU21D;54250;45.572;38.086;2023-02-28T00:27:41;8.94;71.52
67364;HTU21D;54250;45.572;38.086;2023-02-28T00:30:10;8.98;71.36
67364;HTU21D;54250;45.572;38.086;2023-02-28T00:32:37;9.03;71.45
67364;HTU21D;54250;45.572;38.086;2023-02-28T00:35:03;9.07;71.51
67364;HTU21D;54250;45.572;38.086;2023-02-28T00:37:29;9.16;71.44
67364;HTU21D;54250;45.572;38.086;2023-02-28T00:39:55;9.27;71.22
67364;HTU21D;54250;45.572;38.086;2023-02-28T00:42:21;9.34;71.07
67364;HTU21D;54250;45.572;38.086;2023-02-28T00:44:47;9.42;71.12
67364;HTU21D;54250;45.572;38.086;2023-02-28T00:47:13;9.47;70.99
67364;HTU21D;54250;45.572;38.086;2023-02-28T00:49:40;9.56;71.00
67364;HTU21D;54250;45.572;38.086;2023-02-28T00:52:08;9.75;70.77
67364;HTU21D;54250;45.572;38.086;2023-02-28T00:54:35;9.94;70.57
67364;HTU21D;54250;45.572;38.086;2023-02-28T00:57:01;10.12;70.24
67364;HTU21D;54250;45.572;38.086;2023-02-28T00:59:27;10.24;70.00
67364;HTU21D;54250;45.572;38.086;2023-02-28T01:01:53;10.40;69.80
67364;HTU21D;54250;45.572;38.086;2023-02-28T01:04:21;10.51;69.61
67364;HTU21D;54250;45.572;38.086;2023-02-28T01:06:47;10.59;69.43
67364;HTU21D;54250;45.572;38.086;2023-02-28T01:09:13;10.65;69.39
67364;HTU21D;54250;45.572;38.086;2023-02-28T01:11:42;10.72;69.24
67364;HTU21D;54250;45.572;38.086;2023-02-28T01:14:13;10.80;69.06
67364;HTU21D;54250;45.572;38.086;2023-02-28T01:16:39;10.82;68.99
67364;HTU21D;54250;45.572;38.086;2023-02-28T01:19:05;10.83;68.97
67364;HTU21D;54250;45.572;38.086;2023-02-28T01:21:31;10.79;69.05
67364;HTU21D;54250;45.572;38.086;2023-02-28T01:23:57;10.69;69.23
67364;HTU21D;54250;45.572;38.086;2023-02-28T01:26:24;10.44;69.58
67364;HTU21D;54250;45.572;38.086;2023-02-28T01:28:51;10.25;70.00
67364;HTU21D;54250;45.572;38.086;2023-02-28T01:31:18;10.13;70.17
67364;HTU21D;54250;45.572;38.086;2023-02-28T01:33:45;10.07;70.19
67364;HTU21D;54250;45.572;38.086;2023-02-28T01:36:14;10.03;70.10
67364;HTU21D;54250;45.572;38.086;2023-02-28T01:38:42;9.94;70.10
67364;HTU21D;54250;45.572;38.086;2023-02-28T01:41:08;9.83;70.17
67364;HTU21D;54250;45.572;38.086;2023-02-28T01:46:12;9.54;70.58
67364;HTU21D;54250;45.572;38.086;2023-02-28T01:49:04;9.45;70.64
67364;HTU21D;54250;45.572;38.086;2023-02-28T01:51:37;9.34;70.72
67364;HTU21D;54250;45.572;38.086;2023-02-28T01:54:12;9.22;70.81
67364;HTU21D;54250;45.572;38.086;2023-02-28T01:56:44;9.06;71.03
67364;HTU21D;54250;45.572;38.086;2023-02-28T01:59:16;8.91;71.23
67364;HTU21D;54250;45.572;38.086;2023-02-28T02:01:46;8.75;71.48
67364;HTU21D;54250;45.572;38.086;2023-02-28T02:04:12;8.60;71.70
67364;HTU21D;54250;45.572;38.086;2023-02-28T02:06:41;8.49;71.76
67364;HTU21D;54250;45.572;38.086;2023-02-28T02:09:10;8.39;71.81
67364;HTU21D;54250;45.572;38.086;2023-02-28T02:11:38;8.28;71.89
67364;HTU21D;54250;45.572;38.086;2023-02-28T02:14:44;8.12;71.87
67364;HTU21D;54250;45.572;38.086;2023-02-28T02:20:16;7.86;72.23
67364;HTU21D;54250;45.572;38.086;2023-02-28T02:36:33;7.28;72.87
67364;HTU21D;54250;45.572;38.086;2023-02-28T02:41:45;7.22;72.92
67364;HTU21D;54250;45.572;38.086;2023-02-28T02:44:21;7.15;72.98
67364;HTU21D;54250;45.572;38.086;2023-02-28T02:46:52;7.11;73.06
67364;HTU21D;54250;45.572;38.086;2023-02-28T02:49:26;7.09;73.03
67364;HTU21D;54250;45.572;38.086;2023-02-28T02:51:55;7.05;73.12
67364;HTU21D;54250;45.572;38.086;2023-02-28T02:54:32;7.02;73.02
67364;HTU21D;54250;45.572;38.086;2023-02-28T02:57:13;7.00;73.06
67364;HTU21D;54250;45.572;38.086;2023-02-28T02:59:41;7.01;73.08
67364;HTU21D;54250;45.572;38.086;2023-02-28T03:02:11;7.02;73.07
67364;HTU21D;54250;45.572;38.086;2023-02-28T03:04:45;7.04;73.13
67364;HTU21D;54250;45.572;38.086;2023-02-28T03:07:12;7.05;73.04
67364;HTU21D;54250;45.572;38.086;2023-02-28T03:09:38;7.10;73.02
67364;HTU21D;54250;45.572;38.086;2023-02-28T03:12:09;7.12;72.98
67364;HTU21D;54250;45.572;38.086;2023-02-28T03:14:56;7.13;72.91
67364;HTU21D;54250;45.572;38.086;2023-02-28T03:20:25;7.11;72.82
67364;HTU21D;54250;45.572;38.086;2023-02-28T03:23:23;7.01;72.92
67364;HTU21D;54250;45.572;38.086;2023-02-28T03:25:59;6.95;73.18
67364;HTU21D;54250;45.572;38.086;2023-02-28T03:31:19;6.85;73.15
67364;HTU21D;54250;45.572;38.086;2023-02-28T03:34:03;6.83;73.19
67364;HTU21D;54250;45.572;38.086;2023-02-28T03:36:35;6.79;73.39
67364;HTU21D;54250;45.572;38.086;2023-02-28T03:39:47;6.70;73.50
67364;HTU21D;54250;45.572;38.086;2023-02-28T03:42:10;6.61;73.66
67364;HTU21D;54250;45.572;38.086;2023-02-28T03:44:43;6.57;73.72
67364;HTU21D;54250;45.572;38.086;2023-02-28T03:47:15;6.52;73.86
67364;HTU21D;54250;45.572;38.086;2023-02-28T03:49:49;6.44;74.01
67364;HTU21D;54250;45.572;38.086;2023-02-28T03:52:18;6.38;74.10
67364;HTU21D;54250;45.572;38.086;2023-02-28T03:54:52;6.31;74.18
67364;HTU21D;54250;45.572;38.086;2023-02-28T03:57:34;6.27;74.13
67364;HTU21D;54250;45.572;38.086;2023-02-28T04:02:43;6.24;74.11
67364;HTU21D;54250;45.572;38.086;2023-02-28T04:05:09;6.27;74.00
67364;HTU21D;54250;45.572;38.086;2023-02-28T04:07:35;6.29;73.91
67364;HTU21D;54250;45.572;38.086;2023-02-28T04:10:01;6.31;73.83
67364;HTU21D;54250;45.572;38.086;2023-02-28T04:12:27;6.35;73.80
67364;HTU21D;54250;45.572;38.086;2023-02-28T04:14:53;6.37;73.75
67364;HTU21D;54250;45.572;38.086;2023-02-28T04:17:19;6.39;73.74
67364;HTU21D;54250;45.572;38.086;2023-02-28T04:19:45;6.40;73.76
67364;HTU21D;54250;45.572;38.086;2023-02-28T04:22:11;6.49;73.85
67364;HTU21D;54250;45.572;38.086;2023-02-28T04:24:37;6.54;73.78
67364;HTU21D;54250;45.572;38.086;2023-02-28T04:27:06;6.63;73.82
67364;HTU21D;54250;45.572;38.086;2023-02-28T04:29:34;6.69;73.83
67364;HTU21D;54250;45.572;38.086;2023-02-28T04:32:01;6.74;73.79
67364;HTU21D;54250;45.572;38.086;2023-02-28T04:34:28;6.81;73.74
67364;HTU21D;54250;45.572;38.086;2023-02-28T04:36:55;6.87;73.77
67364;HTU21D;54250;45.572;38.086;2023-02-28T04:39:23;6.93;73.79
67364;HTU21D;54250;45.572;38.086;2023-02-28T04:41:50;6.98;73.77
67364;HTU21D;54250;45.572;38.086;2023-02-28T04:44:16;7.02;73.80
67364;HTU21D;54250;45.572;38.086;2023-02-28T04:46:42;7.08;73.78
67364;HTU21D;54250;45.572;38.086;2023-02-28T04:49:11;7.16;73.74
67364;HTU21D;54250;45.572;38.086;2023-02-28T04:51:37;7.26;73.86
67364;HTU21D;54250;45.572;38.086;2023-02-28T04:54:03;7.35;73.86
67364;HTU21D;54250;45.572;38.086;2023-02-28T04:56:29;7.45;73.96
67364;HTU21D;54250;45.572;38.086;2023-02-28T04:58:56;7.56;74.06
67364;HTU21D;54250;45.572;38.086;2023-02-28T05:01:31;7.69;74.07
67364;HTU21D;54250;45.572;38.086;2023-02-28T05:03:59;7.87;74.09
67364;HTU21D;54250;45.572;38.086;2023-02-28T05:06:27;8.09;73.93
67364;HTU21D;54250;45.572;38.086;2023-02-28T05:08:53;8.33;73.70
67364;HTU21D;54250;45.572;38.086;2023-02-28T05:11:30;8.56;73.80
67364;HTU21D;54250;45.572;38.086;2023-02-28T05:14:05;8.73;73.81
67364;HTU21D;54250;45.572;38.086;2023-02-28T05:16:31;8.88;74.04
67364;HTU21D;54250;45.572;38.086;2023-02-28T05:18:58;8.96;74.18
67364;HTU21D;54250;45.572;38.086;2023-02-28T05:24:03;8.96;74.96
67364;HTU21D;54250;45.572;38.086;2023-02-28T05:26:30;8.95;75.34
67364;HTU21D;54250;45.572;38.086;2023-02-28T05:28:57;8.95;75.44
67364;HTU21D;54250;45.572;38.086;2023-02-28T05:31:23;8.98;75.44
67364;HTU21D;54250;45.572;38.086;2023-02-28T05:33:49;8.91;75.62
67364;HTU21D;54250;45.572;38.086;2023-02-28T05:36:15;8.81;75.96
67364;HTU21D;54250;45.572;38.086;2023-02-28T05:38:41;8.75;76.02
67364;HTU21D;54250;45.572;38.086;2023-02-28T05:41:08;8.81;75.79
67364;HTU21D;54250;45.572;38.086;2023-02-28T05:43:36;8.91;75.62
67364;HTU21D;54250;45.572;38.086;2023-02-28T05:46:07;9.11;75.38
67364;HTU21D;54250;45.572;38.086;2023-02-28T05:48:35;9.38;74.72
67364;HTU21D;54250;45.572;38.086;2023-02-28T05:51:01;9.27;74.76
67364;HTU21D;54250;45.572;38.086;2023-02-28T05:53:29;9.07;75.20
67364;HTU21D;54250;45.572;38.086;2023-02-28T05:55:55;8.81;75.62
67364;HTU21D;54250;45.572;38.086;2023-02-28T05:58:22;8.61;75.87
67364;HTU21D;54250;45.572;38.086;2023-02-28T06:00:49;8.47;76.08
67364;HTU21D;54250;45.572;38.086;2023-02-28T06:03:15;8.49;76.19
67364;HTU21D;54250;45.572;38.086;2023-02-28T06:05:41;8.88;76.01
67364;HTU21D;54250;45.572;38.086;2023-02-28T06:08:07;10.24;73.65
67364;HTU21D;54250;45.572;38.086;2023-02-28T06:10:34;11.77;70.07
67364;HTU21D;54250;45.572;38.086;2023-02-28T06:13:01;12.16;69.28
67364;HTU21D;54250;45.572;38.086;2023-02-28T06:15:28;11.96;70.07
67364;HTU21D;54250;45.572;38.086;2023-02-28T06:17:55;11.91;70.93
67364;HTU21D;54250;45.572;38.086;2023-02-28T06:20:26;12.43;70.18
67364;HTU21D;54250;45.572;38.086;2023-02-28T06:22:56;12.61;69.54
67364;HTU21D;54250;45.572;38.086;2023-02-28T06:25:25;12.01;70.64
67364;HTU21D;54250;45.572;38.086;2023-02-28T06:27:51;11.44;71.92
67364;HTU21D;54250;45.572;38.086;2023-02-28T06:30:17;10.85;72.96
67364;HTU21D;54250;45.572;38.086;2023-02-28T06:32:43;10.29;73.99
67364;HTU21D;54250;45.572;38.086;2023-02-28T06:35:10;9.79;74.70
67364;HTU21D;54250;45.572;38.086;2023-02-28T06:37:36;9.40;75.28
67364;HTU21D;54250;45.572;38.086;2023-02-28T06:40:02;9.19;75.53
67364;HTU21D;54250;45.572;38.086;2023-02-28T06:42:28;9.11;75.63
67364;HTU21D;54250;45.572;38.086;2023-02-28T06:44:56;8.94;75.76
67364;HTU21D;54250;45.572;38.086;2023-02-28T06:47:23;8.80;76.05
67364;HTU21D;54250;45.572;38.086;2023-02-28T06:49:49;8.67;76.15
67364;HTU21D;54250;45.572;38.086;2023-02-28T06:52:15;8.60;76.33
67364;HTU21D;54250;45.572;38.086;2023-02-28T06:54:41;8.56;76.28
67364;HTU21D;54250;45.572;38.086;2023-02-28T06:57:07;8.53;76.33
67364;HTU21D;54250;45.572;38.086;2023-02-28T06:59:34;8.55;76.34
67364;HTU21D;54250;45.572;38.086;2023-02-28T07:02:01;8.61;76.24
67364;HTU21D;54250;45.572;38.086;2023-02-28T07:04:28;8.70;76.24
67364;HTU21D;54250;45.572;38.086;2023-02-28T07:06:55;8.65;76.42
67364;HTU21D;54250;45.572;38.086;2023-02-28T07:09:22;8.58;77.01
67364;HTU21D;54250;45.572;38.086;2023-02-28T07:11:49;8.60;77.11
67364;HTU21D;54250;45.572;38.086;2023-02-28T07:14:15;8.67;77.08
67364;HTU21D;54250;45.572;38.086;2023-02-28T07:16:41;8.67;76.96
67364;HTU21D;54250;45.572;38.086;2023-02-28T07:19:07;8.63;77.15
67364;HTU21D;54250;45.572;38.086;2023-02-28T07:21:33;8.59;77.38
67364;HTU21D;54250;45.572;38.086;2023-02-28T07:23:59;8.57;77.51
67364;HTU21D;54250;45.572;38.086;2023-02-28T07:26:25;8.50;77.88
67364;HTU21D;54250;45.572;38.086;2023-02-28T07:28:51;8.50;77.98
67364;HTU21D;54250;45.572;38.086;2023-02-28T07:31:18;8.51;78.05
67364;HTU21D;54250;45.572;38.086;2023-02-28T07:33:44;8.51;78.24
67364;HTU21D;54250;45.572;38.086;2023-02-28T07:36:13;8.50;78.43
67364;HTU21D;54250;45.572;38.086;2023-02-28T07:38:45;8.49;78.60
67364;HTU21D;54250;45.572;38.086;2023-02-28T07:41:12;8.57;78.57
67364;HTU21D;54250;45.572;38.086;2023-02-28T07:43:38;8.73;78.64
67364;HTU21D;54250;45.572;38.086;2023-02-28T07:46:09;8.83;78.39
67364;HTU21D;54250;45.572;38.086;2023-02-28T07:48:36;8.80;78.76
67364;HTU21D;54250;45.572;38.086;2023-02-28T07:51:02;8.93;78.71
67364;HTU21D;54250;45.572;38.086;2023-02-28T07:53:29;9.03;78.47
67364;HTU21D;54250;45.572;38.086;2023-02-28T07:55:56;9.11;78.43
67364;HTU21D;54250;45.572;38.086;2023-02-28T07:58:24;9.12;78.53
67364;HTU21D;54250;45.572;38.086;2023-02-28T08:00:50;9.09;78.72
67364;HTU21D;54250;45.572;38.086;2023-02-28T08:03:18;9.08;78.92
67364;HTU21D;54250;45.572;38.086;2023-02-28T08:05:44;9.12;78.95
67364;HTU21D;54250;45.572;38.086;2023-02-28T08:08:11;9.18;78.83
67364;HTU21D;54250;45.572;38.086;2023-02-28T08:10:37;9.31;78.69
67364;HTU21D;54250;45.572;38.086;2023-02-28T08:13:03;9.41;78.55
67364;HTU21D;54250;45.572;38.086;2023-02-28T08:15:29;9.49;78.34
67364;HTU21D;54250;45.572;38.086;2023-02-28T08:17:55;9.52;78.30
67364;HTU21D;54250;45.572;38.086;2023-02-28T08:20:23;9.56;78.21
67364;HTU21D;54250;45.572;38.086;2023-02-28T08:22:49;9.49;78.22
67364;HTU21D;54250;45.572;38.086;2023-02-28T08:25:15;9.41;78.48
67364;HTU21D;54250;45.572;38.086;2023-02-28T08:27:41;9.42;78.53
67364;HTU21D;54250;45.572;38.086;2023-02-28T08:30:10;9.36;78.45
67364;HTU21D;54250;45.572;38.086;2023-02-28T08:32:36;9.29;78.67
67364;HTU21D;54250;45.572;38.086;2023-02-28T08:35:02;9.36;78.53
67364;HTU21D;54250;45.572;38.086;2023-02-28T08:37:29;9.40;78.21
67364;HTU21D;54250;45.572;38.086;2023-02-28T08:39:55;9.42;78.22
67364;HTU21D;54250;45.572;38.086;2023-02-28T08:42:22;9.44;78.23
67364;HTU21D;54250;45.572;38.086;2023-02-28T08:44:48;9.40;78.26
67364;HTU21D;54250;45.572;38.086;2023-02-28T08:47:15;9.40;78.22
67364;HTU21D;54250;45.572;38.086;2023-02-28T08:49:41;9.46;78.08
67364;HTU21D;54250;45.572;38.086;2023-02-28T08:52:07;9.50;77.96
67364;HTU21D;54250;45.572;38.086;2023-02-28T08:54:33;9.53;77.86
67364;HTU21D;54250;45.572;38.086;2023-02-28T08:56:59;9.41;77.98
67364;HTU21D;54250;45.572;38.086;2023-02-28T08:59:26;9.44;78.11
67364;HTU21D;54250;45.572;38.086;2023-02-28T09:01:52;9.44;78.08
67364;HTU21D;54250;45.572;38.086;2023-02-28T09:04:18;9.40;78.08
67364;HTU21D;54250;45.572;38.086;2023-02-28T09:06:43;9.38;78.10
67364;HTU21D;54250;45.572;38.086;2023-02-28T09:09:10;9.35;78.15
67364;HTU21D;54250;45.572;38.086;2023-02-28T09:11:36;9.40;78.20
67364;HTU21D;54250;45.572;38.086;2023-02-28T09:14:02;9.49;78.15
67364;HTU21D;54250;45.572;38.086;2023-02-28T09:16:30;9.59;77.97
67364;HTU21D;54250;45.572;38.086;2023-02-28T09:18:56;9.52;77.87
67364;HTU21D;54250;45.572;38.086;2023-02-28T09:21:23;9.39;78.24
67364;HTU21D;54250;45.572;38.086;2023-02-28T09:23:50;9.37;78.37
67364;HTU21D;54250;45.572;38.086;2023-02-28T09:26:26;9.52;78.06
67364;HTU21D;54250;45.572;38.086;2023-02-28T09:28:53;9.85;77.48
67364;HTU21D;54250;45.572;38.086;2023-02-28T09:31:23;9.96;77.15
67364;HTU21D;54250;45.572;38.086;2023-02-28T09:33:51;10.01;77.16
67364;HTU21D;54250;45.572;38.086;2023-02-28T09:36:17;9.96;77.22
67364;HTU21D;54250;45.572;38.086;2023-02-28T09:38:43;9.90;77.54
67364;HTU21D;54250;45.572;38.086;2023-02-28T09:41:25;9.99;77.38
67364;HTU21D;54250;45.572;38.086;2023-02-28T09:43:59;9.95;77.45
67364;HTU21D;54250;45.572;38.086;2023-02-28T09:46:39;9.76;77.84
67364;HTU21D;54250;45.572;38.086;2023-02-28T09:49:13;9.51;78.39
67364;HTU21D;54250;45.572;38.086;2023-02-28T09:51:45;9.35;78.69
67364;HTU21D;54250;45.572;38.086;2023-02-28T09:54:19;9.29;78.71
67364;HTU21D;54250;45.572;38.086;2023-02-28T09:56:51;9.17;78.72
67364;HTU21D;54250;45.572;38.086;2023-02-28T09:59:29;9.17;78.69
67364;HTU21D;54250;45.572;38.086;2023-02-28T10:02:30;9.18;78.63
67364;HTU21D;54250;45.572;38.086;2023-02-28T10:05:07;9.19;78.53
67364;HTU21D;54250;45.572;38.086;2023-02-28T10:08:07;9.07;78.66
67364;HTU21D;54250;45.572;38.086;2023-02-28T10:10:48;9.05;78.79
67364;HTU21D;54250;45.572;38.086;2023-02-28T10:13:26;9.15;78.63
67364;HTU21D;54250;45.572;38.086;2023-02-28T10:15:58;9.10;78.54
67364;HTU21D;54250;45.572;38.086;2023-02-28T10:18:29;9.11;78.74
67364;HTU21D;54250;45.572;38.086;2023-02-28T10:20:57;9.23;78.54
67364;HTU21D;54250;45.572;38.086;2023-02-28T10:23:34;9.41;78.37
67364;HTU21D;54250;45.572;38.086;2023-02-28T10:26:12;9.55;78.05
67364;HTU21D;54250;45.572;38.086;2023-02-28T10:28:39;9.40;78.18
67364;HTU21D;54250;45.572;38.086;2023-02-28T10:31:15;9.34;78.45
67364;HTU21D;54250;45.572;38.086;2023-02-28T10:33:43;9.44;78.35
67364;HTU21D;54250;45.572;38.086;2023-02-28T10:36:17;9.50;78.20
67364;HTU21D;54250;45.572;38.086;2023-02-28T10:38:45;9.48;78.27
67364;HTU21D;54250;45.572;38.086;2023-02-28T10:41:26;9.40;78.26
67364;HTU21D;54250;45.572;38.086;2023-02-28T10:46:41;9.37;78.26
67364;HTU21D;54250;45.572;38.086;2023-02-28T10:49:28;9.35;78.26
67364;HTU21D;54250;45.572;38.086;2023-02-28T10:51:59;9.38;78.22
67364;HTU21D;54250;45.572;38.086;2023-02-28T10:54:31;9.49;77.97
67364;HTU21D;54250;45.572;38.086;2023-02-28T10:57:16;9.46;77.93
67364;HTU21D;54250;45.572;38.086;2023-02-28T10:59:43;9.52;77.82
67364;HTU21D;54250;45.572;38.086;2023-02-28T11:02:29;9.68;77.63
67364;HTU21D;54250;45.572;38.086;2023-02-28T11:04:56;9.69;77.56
67364;HTU21D;54250;45.572;38.086;2023-02-28T11:07:24;9.76;77.48
67364;HTU21D;54250;45.572;38.086;2023-02-28T11:09:52;9.81;77.31
67364;HTU21D;54250;45.572;38.086;2023-02-28T11:12:26;9.76;77.36
67364;HTU21D;54250;45.572;38.086;2023-02-28T11:14:55;9.64;77.44
67364;HTU21D;54250;45.572;38.086;2023-02-28T11:17:32;9.50;77.60
67364;HTU21D;54250;45.572;38.086;2023-02-28T11:20:06;9.33;77.79
67364;HTU21D;54250;45.572;38.086;2023-02-28T11:22:37;9.30;77.82
67364;HTU21D;54250;45.572;38.086;2023-02-28T11:25:25;9.23;77.79
67364;HTU21D;54250;45.572;38.086;2023-02-28T11:27:54;9.21;77.82
67364;HTU21D;54250;45.572;38.086;2023-02-28T11:30:38;9.24;77.67
67364;HTU21D;54250;45.572;38.086;2023-02-28T11:35:51;9.25;77.50
67364;HTU21D;54250;45.572;38.086;2023-02-28T11:38:18;9.29;77.52
67364;HTU21D;54250;45.572;38.086;2023-02-28T11:48:53;9.64;76.72
67364;HTU21D;54250;45.572;38.086;2023-02-28T11:51:47;9.52;76.92
67364;HTU21D;54250;45.572;38.086;2023-02-28T11:56:55;9.52;77.11
67364;HTU21D;54250;45.572;38.086;2023-02-28T12:02:58;9.54;76.91
67364;HTU21D;54250;45.572;38.086;2023-02-28T12:05:33;9.38;77.18
67364;HTU21D;54250;45.572;38.086;2023-02-28T12:08:41;9.15;77.55
67364;HTU21D;54250;45.572;38.086;2023-02-28T12:19:19;9.07;77.43
67364;HTU21D;54250;45.572;38.086;2023-02-28T12:22:36;9.01;77.44
67364;HTU21D;54250;45.572;38.086;2023-02-28T12:27:48;8.97;77.68
67364;HTU21D;54250;45.572;38.086;2023-02-28T12:30:51;9.00;77.60
67364;HTU21D;54250;45.572;38.086;2023-02-28T12:33:13;8.89;77.63
67364;HTU21D;54250;45.572;38.086;2023-02-28T12:35:57;8.75;77.79
67364;HTU21D;54250;45.572;38.086;2023-02-28T12:38:43;8.63;77.92
67364;HTU21D;54250;45.572;38.086;2023-02-28T12:41:20;8.53;78.12
67364;HTU21D;54250;45.572;38.086;2023-02-28T12:44:02;8.42;78.26
67364;HTU21D;54250;45.572;38.086;2023-02-28T12:46:33;8.28;78.44
67364;HTU21D;54250;45.572;38.086;2023-02-28T12:49:09;8.16;78.59
67364;HTU21D;54250;45.572;38.086;2023-02-28T12:51:36;8.07;78.64
67364;HTU21D;54250;45.572;38.086;2023-02-28T12:54:24;8.00;78.53
67364;HTU21D;54250;45.572;38.086;2023-02-28T12:57:11;7.92;78.59
67364;HTU21D;54250;45.572;38.086;2023-02-28T13:10:24;7.29;79.42
67364;HTU21D;54250;45.572;38.086;2023-02-28T13:12:52;7.20;79.45
67364;HTU21D;54250;45.572;38.086;2023-02-28T13:15:23;7.12;79.43
67364;HTU21D;54250;45.572;38.086;2023-02-28T13:17:52;7.08;79.41
67364;HTU21D;54250;45.572;38.086;2023-02-28T13:20:20;7.03;79.60
67364;HTU21D;54250;45.572;38.086;2023-02-28T13:22:51;6.96;79.53
67364;HTU21D;54250;45.572;38.086;2023-02-28T13:28:08;6.67;79.87
67364;HTU21D;54250;45.572;38.086;2023-02-28T13:34:04;6.49;79.99
67364;HTU21D;54250;45.572;38.086;2023-02-28T13:36:29;6.45;80.05
67364;HTU21D;54250;45.572;38.086;2023-02-28T13:39:01;6.42;79.91
67364;HTU21D;54250;45.572;38.086;2023-02-28T13:44:22;6.36;79.99
67364;HTU21D;54250;45.572;38.086;2023-02-28T14:05:41;6.10;80.18
67364;HTU21D;54250;45.572;38.086;2023-02-28T14:08:10;6.09;80.22
67364;HTU21D;54250;45.572;38.086;2023-02-28T14:10:46;6.10;80.20
67364;HTU21D;54250;45.572;38.086;2023-02-28T14:16:03;6.07;80.13
67364;HTU21D;54250;45.572;38.086;2023-02-28T14:18:35;6.05;80.22
67364;HTU21D;54250;45.572;38.086;2023-02-28T14:21:31;6.01;80.20
67364;HTU21D;54250;45.572;38.086;2023-02-28T14:37:38;5.84;80.44
67364;HTU21D;54250;45.572;38.086;2023-02-28T14:40:14;5.83;80.47
67364;HTU21D;54250;45.572;38.086;2023-02-28T14:42:48;5.80;80.54
67364;HTU21D;54250;45.572;38.086;2023-02-28T14:45:21;5.78;80.61
67364;HTU21D;54250;45.572;38.086;2023-02-28T14:47:49;5.77;80.61
67364;HTU21D;54250;45.572;38.086;2023-02-28T14:50:23;5.75;80.57
67364;HTU21D;54250;45.572;38.086;2023-02-28T14:52:53;5.74;80.55
67364;HTU21D;54250;45.572;38.086;2023-02-28T14:55:36;5.72;80.56
67364;HTU21D;54250;45.572;38.086;2023-02-28T14:58:06;5.71;80.54
67364;HTU21D;54250;45.572;38.086;2023-02-28T15:00:34;5.69;80.58
67364;HTU21D;54250;45.572;38.086;2023-02-28T15:03:38;5.65;80.70
67364;HTU21D;54250;45.572;38.086;2023-02-28T15:06:17;5.64;80.72
67364;HTU21D;54250;45.572;38.086;2023-02-28T15:08:44;5.63;80.85
67364;HTU21D;54250;45.572;38.086;2023-02-28T15:11:18;5.59;80.73
67364;HTU21D;54250;45.572;38.086;2023-02-28T15:13:49;5.53;80.85
67364;HTU21D;54250;45.572;38.086;2023-02-28T15:16:20;5.49;80.86
67364;HTU21D;54250;45.572;38.086;2023-02-28T15:18:56;5.45;80.88
67364;HTU21D;54250;45.572;38.086;2023-02-28T15:26:29;5.39;81.02
67364;HTU21D;54250;45.572;38.086;2023-02-28T15:29:20;5.37;80.98
67364;HTU21D;54250;45.572;38.086;2023-02-28T15:32:16;5.37;81.02
67364;HTU21D;54250;45.572;38.086;2023-02-28T15:34:39;5.35;81.04
67364;HTU21D;54250;45.572;38.086;2023-02-28T15:40:23;5.35;81.23
67364;HTU21D;54250;45.572;38.086;2023-02-28T15:45:45;5.30;81.14
67364;HTU21D;54250;45.572;38.086;2023-02-28T15:51:17;5.26;81.09
67364;HTU21D;54250;45.572;38.086;2023-02-28T15:54:00;5.26;81.31
67364;HTU21D;54250;45.572;38.086;2023-02-28T15:56:29;5.28;81.23
67364;HTU21D;54250;45.572;38.086;2023-02-28T15:58:57;5.27;81.23
67364;HTU21D;54250;45.572;38.086;2023-02-28T16:03:52;5.27;81.19
67364;HTU21D;54250;45.572;38.086;2023-02-28T16:06:30;5.26;81.22
67364;HTU21D;54250;45.572;38.086;2023-02-28T16:08:57;5.24;81.12
67364;HTU21D;54250;45.572;38.086;2023-02-28T16:11:23;5.24;81.17
67364;HTU21D;54250;45.572;38.086;2023-02-28T16:13:50;5.25;81.11
67364;HTU21D;54250;45.572;38.086;2023-02-28T16:16:22;5.25;81.00
67364;HTU21D;54250;45.572;38.086;2023-02-28T16:18:50;5.24;81.02
67364;HTU21D;54250;45.572;38.086;2023-02-28T16:21:16;5.23;80.98
67364;HTU21D;54250;45.572;38.086;2023-02-28T16:23:42;5.22;80.95
67364;HTU21D;54250;45.572;38.086;2023-02-28T16:26:23;5.23;81.00
67364;HTU21D;54250;45.572;38.086;2023-02-28T16:28:51;5.21;80.94
67364;HTU21D;54250;45.572;38.086;2023-02-28T16:31:18;5.21;80.91
67364;HTU21D;54250;45.572;38.086;2023-02-28T16:33:45;5.19;80.90
67364;HTU21D;54250;45.572;38.086;2023-02-28T16:36:21;5.20;80.93
67364;HTU21D;54250;45.572;38.086;2023-02-28T16:38:49;5.20;80.94
67364;HTU21D;54250;45.572;38.086;2023-02-28T16:41:21;5.21;81.03
67364;HTU21D;54250;45.572;38.086;2023-02-28T16:43:51;5.22;81.20
67364;HTU21D;54250;45.572;38.086;2023-02-28T16:46:17;5.24;81.22
67364;HTU21D;54250;45.572;38.086;2023-02-28T16:48:46;5.24;81.17
67364;HTU21D;54250;45.572;38.086;2023-02-28T16:51:17;5.23;81.16
67364;HTU21D;54250;45.572;38.086;2023-02-28T16:53:44;5.23;81.39
67364;HTU21D;54250;45.572;38.086;2023-02-28T16:56:23;5.22;81.17
67364;HTU21D;54250;45.572;38.086;2023-02-28T16:58:51;5.22;81.26
67364;HTU21D;54250;45.572;38.086;2023-02-28T17:01:19;5.22;81.31
67364;HTU21D;54250;45.572;38.086;2023-02-28T17:03:48;5.20;81.30
67364;HTU21D;54250;45.572;38.086;2023-02-28T17:06:24;5.19;81.31
67364;HTU21D;54250;45.572;38.086;2023-02-28T17:08:51;5.17;81.45
67364;HTU21D;54250;45.572;38.086;2023-02-28T17:11:18;5.16;81.64
67364;HTU21D;54250;45.572;38.086;2023-02-28T17:13:45;5.17;81.59
67364;HTU21D;54250;45.572;38.086;2023-02-28T17:16:39;5.15;81.36
67364;HTU21D;54250;45.572;38.086;2023-02-28T17:19:06;5.06;81.34
67364;HTU21D;54250;45.572;38.086;2023-02-28T17:21:33;5.08;81.39
67364;HTU21D;54250;45.572;38.086;2023-02-28T17:24:00;5.07;81.44
67364;HTU21D;54250;45.572;38.086;2023-02-28T17:26:26;5.08;81.43
67364;HTU21D;54250;45.572;38.086;2023-02-28T17:28:55;5.08;81.39
67364;HTU21D;54250;45.572;38.086;2023-02-28T17:31:27;5.10;81.37
67364;HTU21D;54250;45.572;38.086;2023-02-28T17:33:55;5.09;81.31
67364;HTU21D;54250;45.572;38.086;2023-02-28T17:36:24;5.11;81.30
67364;HTU21D;54250;45.572;38.086;2023-02-28T17:38:52;5.09;81.29
67364;HTU21D;54250;45.572;38.086;2023-02-28T17:41:24;5.10;81.20
67364;HTU21D;54250;45.572;38.086;2023-02-28T17:43:53;5.10;81.20
67364;HTU21D;54250;45.572;38.086;2023-02-28T17:46:26;5.10;81.20
67364;HTU21D;54250;45.572;38.086;2023-02-28T17:48:54;5.09;81.10
67364;HTU21D;54250;45.572;38.086;2023-02-28T17:51:26;5.09;81.12